Pagrindinis puslapis
METAR-TAF:

METAR-TAF

Oro uostai :

Leknes, Norvegija

platuma: 68-09N, ilguma: 013-37E, Aukštis: 2 m

Dabartinis oras

Ataskaita buvo paskelbta 37 minutes, ne 10:50 UTC
Vėjas 9 kt iš Pietų
Temperatūra 13°C
Drėgmė 67%
Slėgis 1033 hPa
Matomumas 10 km arba daugiau
nėra debesų žemiau 1500 m ir nėra kamuolinių lietaus debesų

METAR: ENLK 311050Z 18009KT CAVOK 13/07 Q1033

Laikas: 13:27 (11:27 UTC)


TAF: trūkstamas

Orai ataskaitas ir orų prognozės (METAR, TAF).

turimą stotys yra geltonos ir raudonos taškus žemėlapyje.

Perkelti pele per norėdami pamatyti stoties vardą.

Tada spustelėkite, norėdami matyti oro stebėjimo ir prognozės.

Norėdami pakeisti žemėlapį: spustelėkite ant žalios mygtukų su juodo kryžiaus žemyn,; žalią mygtuką su brūkšneliu, jei norite nutolinti; arba žalių rodyklių gretimoms žemėlapius.


METAR-TAF: